createdAt,value
2019-02-15T00:01:20.806Z,99.90
2019-02-15T00:06:24.528Z,99.90
2019-02-15T00:11:28.904Z,99.90
2019-02-15T00:16:32.619Z,99.90
2019-02-15T00:21:42.700Z,99.90
2019-02-15T00:26:46.477Z,99.90
2019-02-15T00:31:50.189Z,99.90
2019-02-15T00:36:53.860Z,99.90
2019-02-15T00:41:57.619Z,99.90
2019-02-15T00:47:09.445Z,99.90
2019-02-15T00:52:19.037Z,99.90
2019-02-15T00:57:45.263Z,99.90
2019-02-15T01:03:08.987Z,99.90
2019-02-15T01:08:23.174Z,99.90
2019-02-15T01:13:31.138Z,99.90
2019-02-15T01:18:32.780Z,99.90
2019-02-15T01:23:36.485Z,99.90
2019-02-15T01:28:47.023Z,99.90
2019-02-15T01:34:25.279Z,99.90
2019-02-15T01:39:44.129Z,99.90
2019-02-15T01:44:52.499Z,99.90
2019-02-15T01:49:56.200Z,99.90
2019-02-15T01:54:59.908Z,99.90
2019-02-15T02:00:04.138Z,99.90
2019-02-15T02:05:08.097Z,99.90
2019-02-15T02:10:11.899Z,99.90
2019-02-15T02:15:15.572Z,99.90
2019-02-15T02:20:19.296Z,99.90
2019-02-15T02:25:23.404Z,99.90
2019-02-15T02:30:27.199Z,99.90
2019-02-15T02:35:31.563Z,99.90
2019-02-15T02:40:35.285Z,99.90
2019-02-15T02:45:39.103Z,99.90
2019-02-15T02:50:43.119Z,99.90
2019-02-15T02:55:46.879Z,99.90
2019-02-15T03:00:50.580Z,99.90
2019-02-15T03:05:54.536Z,99.90
2019-02-15T03:10:58.775Z,99.90
2019-02-15T03:16:02.479Z,99.90
2019-02-15T03:21:06.185Z,99.90
2019-02-15T03:26:09.917Z,99.90
2019-02-15T03:31:13.657Z,99.90
2019-02-15T03:36:27.233Z,99.90
2019-02-15T03:41:33.580Z,99.90
2019-02-15T03:46:37.307Z,99.90
2019-02-15T03:51:41.281Z,99.90
2019-02-15T03:56:45.022Z,99.90
2019-02-15T04:01:48.881Z,99.90
2019-02-15T04:06:52.805Z,99.90
2019-02-15T04:11:56.534Z,99.90
2019-02-15T04:17:00.245Z,99.90
2019-02-15T04:22:04.322Z,99.90
2019-02-15T04:27:07.996Z,99.90
2019-02-15T04:32:11.687Z,99.90
2019-02-15T04:37:15.719Z,99.90
2019-02-15T04:42:19.406Z,99.90
2019-02-15T04:47:23.084Z,99.90
2019-02-15T04:52:27.356Z,99.90
2019-02-15T04:57:31.660Z,99.90
2019-02-15T05:02:35.402Z,99.90
2019-02-15T05:07:39.169Z,99.90
2019-02-15T05:12:43.136Z,99.90
2019-02-15T05:17:46.825Z,99.90
2019-02-15T05:22:50.577Z,99.90
2019-02-15T05:27:54.257Z,99.90
2019-02-15T05:32:57.947Z,99.90
2019-02-15T05:38:03.025Z,99.90
2019-02-15T05:43:06.758Z,99.90
2019-02-15T05:48:10.496Z,99.90
2019-02-15T05:53:14.277Z,99.90
2019-02-15T05:58:18.301Z,99.90
2019-02-15T06:03:22.049Z,99.90
2019-02-15T06:08:25.772Z,99.90
2019-02-15T06:13:29.743Z,99.90
2019-02-15T06:18:33.451Z,99.90
2019-02-15T06:23:37.244Z,99.90
2019-02-15T06:28:41.030Z,99.90
2019-02-15T06:33:44.734Z,99.90
2019-02-15T06:38:48.829Z,99.90
2019-02-15T06:43:52.809Z,99.90
2019-02-15T06:48:56.562Z,99.90
2019-02-15T06:54:00.276Z,99.90
2019-02-15T06:59:29.200Z,99.90
2019-02-15T07:04:49.198Z,99.90
2019-02-15T07:09:53.051Z,99.90
2019-02-15T07:14:56.822Z,99.90
2019-02-15T07:20:00.563Z,99.90
2019-02-15T07:25:04.386Z,99.90
2019-02-15T07:30:10.274Z,99.90
2019-02-15T07:35:13.978Z,99.90
2019-02-15T07:40:17.632Z,94.90
2019-02-15T07:45:22.734Z,92.50
2019-02-15T07:50:26.528Z,90.70
2019-02-15T07:55:30.305Z,79.10
2019-02-15T08:00:34.023Z,75.80
2019-02-15T08:05:37.978Z,66.50
2019-02-15T08:10:41.762Z,60.50
2019-02-15T08:15:51.521Z,53.10
2019-02-15T08:20:51.568Z,47.40
2019-02-15T08:25:55.269Z,42.80
2019-02-15T08:30:58.975Z,39.50
2019-02-15T08:36:02.650Z,36.40
2019-02-15T08:41:21.038Z,37.60
2019-02-15T08:46:27.268Z,35.60
2019-02-15T08:52:04.710Z,32.40
2019-02-15T08:57:21.751Z,29.30
2019-02-15T09:02:38.629Z,28.80
2019-02-15T09:07:42.445Z,27.50
2019-02-15T09:12:46.150Z,26.50
2019-02-15T09:17:49.870Z,26.80
2019-02-15T09:22:53.612Z,25.40
2019-02-15T09:28:16.820Z,25.30
2019-02-15T09:33:20.551Z,25.50
2019-02-15T09:38:24.897Z,25.40
2019-02-15T09:43:28.625Z,25.20
2019-02-15T09:48:32.708Z,25.20
2019-02-15T09:53:36.430Z,23.70
2019-02-15T09:58:40.153Z,21.80
2019-02-15T10:03:43.897Z,22.10
2019-02-15T10:08:50.627Z,22.50
2019-02-15T10:13:56.861Z,22.00
2019-02-15T10:19:02.945Z,20.80
2019-02-15T10:24:08.238Z,20.10
2019-02-15T10:29:12.995Z,20.00
2019-02-15T10:34:18.149Z,20.00
2019-02-15T10:39:23.898Z,20.10
2019-02-15T10:44:29.929Z,19.10
2019-02-15T10:49:34.584Z,18.90
2019-02-15T10:54:40.491Z,18.70
2019-02-15T10:59:46.989Z,18.40
2019-02-15T11:04:53.401Z,19.60
2019-02-15T11:10:16.132Z,18.90
2019-02-15T11:35:19.367Z,19.20
2019-02-15T12:17:11.461Z,17.70
2019-02-15T12:23:47.471Z,17.30
2019-02-15T12:36:01.753Z,18.70
2019-02-15T12:41:03.775Z,18.20
2019-02-15T12:52:48.804Z,18.50
2019-02-15T13:09:55.708Z,18.40
2019-02-15T13:14:59.625Z,18.50
2019-02-15T13:20:03.443Z,19.30
2019-02-15T13:25:07.742Z,19.70
2019-02-15T13:30:11.891Z,18.90
2019-02-15T13:35:15.999Z,19.30
2019-02-15T13:40:19.699Z,20.70
2019-02-15T13:46:17.667Z,20.90
2019-02-15T13:52:30.094Z,20.40
2019-02-15T13:57:33.823Z,20.90
2019-02-15T14:02:37.529Z,19.80
2019-02-15T14:07:41.265Z,19.50
2019-02-15T14:12:45.091Z,19.60
2019-02-15T14:17:49.147Z,20.20
2019-02-15T14:22:52.847Z,20.40
2019-02-15T14:27:56.598Z,20.50
2019-02-15T14:33:00.699Z,20.40
2019-02-15T14:38:04.525Z,20.60
2019-02-15T14:43:08.533Z,20.10
2019-02-15T14:48:12.305Z,19.40
2019-02-15T14:53:16.004Z,19.10
2019-02-15T14:58:19.714Z,18.50
2019-02-15T15:03:23.801Z,19.50
2019-02-15T15:08:27.697Z,19.60
2019-02-15T15:13:31.387Z,20.20
2019-02-15T15:18:35.200Z,20.10
2019-02-15T15:23:38.938Z,20.70
2019-02-15T15:28:42.652Z,21.00
2019-02-15T15:33:46.591Z,21.50
2019-02-15T15:38:50.283Z,21.70
2019-02-15T15:43:53.948Z,22.20
2019-02-15T15:48:57.681Z,21.90
2019-02-15T15:54:01.373Z,23.20
2019-02-15T15:59:05.566Z,25.80
2019-02-15T16:04:10.351Z,28.20
2019-02-15T16:09:14.094Z,29.90
2019-02-15T16:14:17.866Z,30.20
2019-02-15T16:19:21.554Z,32.50
2019-02-15T16:24:25.510Z,33.30
2019-02-15T16:29:29.259Z,35.90
2019-02-15T16:34:32.994Z,37.50
2019-02-15T16:39:36.728Z,38.80
2019-02-15T16:44:40.434Z,41.20
2019-02-15T16:49:44.154Z,43.20
2019-02-15T16:54:48.036Z,44.10
2019-02-15T16:59:53.001Z,45.90
2019-02-15T17:04:56.969Z,47.20
2019-02-15T17:10:00.728Z,46.50
2019-02-15T17:15:04.696Z,47.90
2019-02-15T17:20:09.069Z,49.90
2019-02-15T17:25:12.993Z,50.80
2019-02-15T17:30:16.670Z,53.10
2019-02-15T17:35:20.953Z,56.10
2019-02-15T17:40:24.656Z,57.90
2019-02-15T17:45:28.848Z,59.00
2019-02-15T17:50:32.616Z,59.20
2019-02-15T17:55:36.318Z,58.90
2019-02-15T18:00:40.021Z,60.90
2019-02-15T18:05:43.729Z,62.40
2019-02-15T18:10:47.437Z,64.00
2019-02-15T18:15:51.137Z,66.30
2019-02-15T18:20:54.820Z,67.90
2019-02-15T18:25:58.906Z,69.80
2019-02-15T18:31:02.925Z,71.30
2019-02-15T18:36:06.699Z,72.80
2019-02-15T18:41:13.539Z,73.80
2019-02-15T18:46:15.999Z,74.90
2019-02-15T18:51:19.783Z,76.80
2019-02-15T18:56:23.498Z,77.90
2019-02-15T19:01:27.594Z,82.00
2019-02-15T19:06:31.564Z,79.60
2019-02-15T19:11:35.278Z,80.50
2019-02-15T19:16:39.309Z,81.10
2019-02-15T19:28:19.948Z,81.70
2019-02-15T19:34:09.133Z,82.00
2019-02-15T19:39:48.802Z,82.20
2019-02-15T19:44:53.282Z,82.40
2019-02-15T19:49:56.978Z,82.80
2019-02-15T19:55:00.725Z,84.60
2019-02-15T20:00:05.525Z,85.60
2019-02-15T20:05:09.313Z,85.60
2019-02-15T20:10:14.906Z,86.30
2019-02-15T20:15:18.951Z,86.40
2019-02-15T20:20:22.634Z,86.10
2019-02-15T20:25:26.701Z,85.70
2019-02-15T20:30:30.565Z,87.30
2019-02-15T20:35:34.245Z,87.50
2019-02-15T20:40:37.953Z,88.10
2019-02-15T20:45:41.731Z,89.00
2019-02-15T20:50:45.482Z,87.40
2019-02-15T20:55:49.254Z,88.20
2019-02-15T21:00:53.308Z,89.40
2019-02-15T21:05:57.045Z,90.30
2019-02-15T21:11:00.884Z,90.20
2019-02-15T21:16:04.593Z,90.00
2019-02-15T21:21:08.296Z,90.00
2019-02-15T21:26:11.990Z,90.40
2019-02-15T21:31:15.778Z,90.50
2019-02-15T21:36:19.837Z,90.30
2019-02-15T21:41:23.631Z,90.50
2019-02-15T21:46:27.623Z,90.80
2019-02-15T21:51:31.544Z,91.10
2019-02-15T21:56:35.256Z,91.10
2019-02-15T22:01:39.119Z,91.20
2019-02-15T22:06:42.932Z,91.20
2019-02-15T22:11:47.002Z,91.30
2019-02-15T22:16:50.699Z,91.50
2019-02-15T22:21:55.036Z,91.40
2019-02-15T22:26:58.723Z,91.50
2019-02-15T22:32:02.501Z,91.60
2019-02-15T22:37:06.535Z,92.00
2019-02-15T22:42:10.504Z,92.00
2019-02-15T22:47:14.204Z,91.90
2019-02-15T22:52:17.916Z,92.20
2019-02-15T22:57:21.636Z,92.90
2019-02-15T23:02:25.425Z,93.20
2019-02-15T23:07:29.128Z,93.30
2019-02-15T23:12:33.089Z,93.40
2019-02-15T23:17:36.751Z,93.60
2019-02-15T23:22:40.436Z,93.70
2019-02-15T23:27:44.118Z,93.90
2019-02-15T23:32:48.036Z,93.50
2019-02-15T23:37:52.087Z,93.80
2019-02-15T23:42:55.809Z,93.80
2019-02-15T23:47:59.471Z,93.70
2019-02-15T23:53:03.475Z,93.90
2019-02-15T23:58:07.139Z,94.10
